sensor_id;sensor_type;location;lat;lon;timestamp;P1;durP1;ratioP1;P2;durP2;ratioP2
2896;SDS011;1458;49.728;9.228;2023-09-19T00:00:26;0.10;;;0.10;;
2896;SDS011;1458;49.728;9.228;2023-09-19T00:02:54;0.10;;;0.10;;
2896;SDS011;1458;49.728;9.228;2023-09-19T00:05:24;0.10;;;0.10;;
2896;SDS011;1458;49.728;9.228;2023-09-19T00:07:53;0.10;;;0.10;;
2896;SDS011;1458;49.728;9.228;2023-09-19T00:10:24;0.20;;;0.20;;
2896;SDS011;1458;49.728;9.228;2023-09-19T00:12:52;0.20;;;0.20;;
2896;SDS011;1458;49.728;9.228;2023-09-19T00:15:23;0.10;;;0.10;;
2896;SDS011;1458;49.728;9.228;2023-09-19T00:17:51;0.30;;;0.30;;
2896;SDS011;1458;49.728;9.228;2023-09-19T00:20:18;0.10;;;0.10;;
2896;SDS011;1458;49.728;9.228;2023-09-19T00:22:48;0.10;;;0.10;;
2896;SDS011;1458;49.728;9.228;2023-09-19T00:25:17;0.20;;;0.20;;
2896;SDS011;1458;49.728;9.228;2023-09-19T00:27:45;0.20;;;0.20;;
2896;SDS011;1458;49.728;9.228;2023-09-19T00:30:15;0.30;;;0.30;;
2896;SDS011;1458;49.728;9.228;2023-09-19T00:32:47;0.20;;;0.20;;
2896;SDS011;1458;49.728;9.228;2023-09-19T00:35:19;0.10;;;0.10;;
2896;SDS011;1458;49.728;9.228;2023-09-19T00:37:49;0.10;;;0.10;;
2896;SDS011;1458;49.728;9.228;2023-09-19T00:40:16;0.10;;;0.10;;
2896;SDS011;1458;49.728;9.228;2023-09-19T00:42:45;0.20;;;0.20;;
2896;SDS011;1458;49.728;9.228;2023-09-19T00:45:14;0.20;;;0.20;;
2896;SDS011;1458;49.728;9.228;2023-09-19T00:47:44;0.20;;;0.20;;
2896;SDS011;1458;49.728;9.228;2023-09-19T00:50:15;0.30;;;0.30;;
2896;SDS011;1458;49.728;9.228;2023-09-19T00:52:45;0.20;;;0.20;;
2896;SDS011;1458;49.728;9.228;2023-09-19T00:55:15;0.20;;;0.20;;
2896;SDS011;1458;49.728;9.228;2023-09-19T00:57:45;0.20;;;0.20;;
2896;SDS011;1458;49.728;9.228;2023-09-19T01:00:13;0.13;;;0.13;;
2896;SDS011;1458;49.728;9.228;2023-09-19T01:02:41;0.10;;;0.10;;
2896;SDS011;1458;49.728;9.228;2023-09-19T01:05:10;0.20;;;0.20;;
2896;SDS011;1458;49.728;9.228;2023-09-19T01:07:38;0.10;;;0.10;;
2896;SDS011;1458;49.728;9.228;2023-09-19T01:10:07;0.10;;;0.10;;
2896;SDS011;1458;49.728;9.228;2023-09-19T01:12:41;0.10;;;0.10;;
2896;SDS011;1458;49.728;9.228;2023-09-19T01:18:20;0.10;;;0.10;;
2896;SDS011;1458;49.728;9.228;2023-09-19T01:21:03;0.10;;;0.10;;
2896;SDS011;1458;49.728;9.228;2023-09-19T01:23:39;0.10;;;0.10;;
2896;SDS011;1458;49.728;9.228;2023-09-19T01:26:56;0.10;;;0.10;;
2896;SDS011;1458;49.728;9.228;2023-09-19T01:29:52;0.10;;;0.10;;
2896;SDS011;1458;49.728;9.228;2023-09-19T01:32:34;0.10;;;0.10;;
2896;SDS011;1458;49.728;9.228;2023-09-19T01:35:03;0.10;;;0.10;;
2896;SDS011;1458;49.728;9.228;2023-09-19T01:37:31;0.17;;;0.17;;
2896;SDS011;1458;49.728;9.228;2023-09-19T01:39:59;0.10;;;0.10;;
2896;SDS011;1458;49.728;9.228;2023-09-19T01:42:33;0.17;;;0.17;;
2896;SDS011;1458;49.728;9.228;2023-09-19T01:45:11;0.10;;;0.10;;
2896;SDS011;1458;49.728;9.228;2023-09-19T01:47:46;0.10;;;0.10;;
2896;SDS011;1458;49.728;9.228;2023-09-19T01:50:21;0.10;;;0.10;;
2896;SDS011;1458;49.728;9.228;2023-09-19T01:52:57;0.20;;;0.20;;
2896;SDS011;1458;49.728;9.228;2023-09-19T01:55:41;0.10;;;0.10;;
2896;SDS011;1458;49.728;9.228;2023-09-19T01:58:16;0.20;;;0.20;;
2896;SDS011;1458;49.728;9.228;2023-09-19T02:00:49;0.10;;;0.10;;
2896;SDS011;1458;49.728;9.228;2023-09-19T02:03:19;0.20;;;0.20;;
2896;SDS011;1458;49.728;9.228;2023-09-19T02:05:49;0.20;;;0.20;;
2896;SDS011;1458;49.728;9.228;2023-09-19T02:08:20;0.10;;;0.10;;
2896;SDS011;1458;49.728;9.228;2023-09-19T02:10:50;0.10;;;0.10;;
2896;SDS011;1458;49.728;9.228;2023-09-19T02:13:19;0.20;;;0.20;;
2896;SDS011;1458;49.728;9.228;2023-09-19T02:15:47;0.10;;;0.10;;
2896;SDS011;1458;49.728;9.228;2023-09-19T02:18:16;0.13;;;0.13;;
2896;SDS011;1458;49.728;9.228;2023-09-19T02:20:43;0.20;;;0.20;;
2896;SDS011;1458;49.728;9.228;2023-09-19T02:23:12;0.20;;;0.20;;
2896;SDS011;1458;49.728;9.228;2023-09-19T02:25:40;0.10;;;0.10;;
2896;SDS011;1458;49.728;9.228;2023-09-19T02:28:10;0.10;;;0.10;;
2896;SDS011;1458;49.728;9.228;2023-09-19T02:30:37;0.20;;;0.20;;
2896;SDS011;1458;49.728;9.228;2023-09-19T02:33:06;0.10;;;0.10;;
2896;SDS011;1458;49.728;9.228;2023-09-19T02:35:34;0.10;;;0.10;;
2896;SDS011;1458;49.728;9.228;2023-09-19T02:38:01;0.20;;;0.20;;
2896;SDS011;1458;49.728;9.228;2023-09-19T02:40:31;0.10;;;0.10;;
2896;SDS011;1458;49.728;9.228;2023-09-19T02:43:01;0.10;;;0.10;;
2896;SDS011;1458;49.728;9.228;2023-09-19T02:45:29;0.10;;;0.10;;
2896;SDS011;1458;49.728;9.228;2023-09-19T02:47:57;0.10;;;0.10;;
2896;SDS011;1458;49.728;9.228;2023-09-19T02:50:26;0.10;;;0.10;;
2896;SDS011;1458;49.728;9.228;2023-09-19T02:52:54;0.10;;;0.10;;
2896;SDS011;1458;49.728;9.228;2023-09-19T02:55:21;0.10;;;0.10;;
2896;SDS011;1458;49.728;9.228;2023-09-19T02:57:49;0.10;;;0.10;;
2896;SDS011;1458;49.728;9.228;2023-09-19T03:00:20;0.10;;;0.10;;
2896;SDS011;1458;49.728;9.228;2023-09-19T03:02:49;0.10;;;0.10;;
2896;SDS011;1458;49.728;9.228;2023-09-19T03:05:19;0.20;;;0.20;;
2896;SDS011;1458;49.728;9.228;2023-09-19T03:07:50;0.10;;;0.10;;
2896;SDS011;1458;49.728;9.228;2023-09-19T03:10:19;0.10;;;0.10;;
2896;SDS011;1458;49.728;9.228;2023-09-19T03:12:48;0.10;;;0.10;;
2896;SDS011;1458;49.728;9.228;2023-09-19T03:15:17;0.10;;;0.10;;
2896;SDS011;1458;49.728;9.228;2023-09-19T03:17:45;0.10;;;0.10;;
2896;SDS011;1458;49.728;9.228;2023-09-19T03:20:18;0.10;;;0.10;;
2896;SDS011;1458;49.728;9.228;2023-09-19T03:22:47;0.10;;;0.10;;
2896;SDS011;1458;49.728;9.228;2023-09-19T03:25:17;0.20;;;0.20;;
2896;SDS011;1458;49.728;9.228;2023-09-19T03:27:48;0.10;;;0.10;;
2896;SDS011;1458;49.728;9.228;2023-09-19T03:30:16;0.10;;;0.10;;
2896;SDS011;1458;49.728;9.228;2023-09-19T03:32:44;0.10;;;0.10;;
2896;SDS011;1458;49.728;9.228;2023-09-19T03:35:15;0.10;;;0.10;;
2896;SDS011;1458;49.728;9.228;2023-09-19T03:37:44;0.10;;;0.10;;
2896;SDS011;1458;49.728;9.228;2023-09-19T03:40:13;0.10;;;0.10;;
2896;SDS011;1458;49.728;9.228;2023-09-19T03:42:43;0.10;;;0.10;;
2896;SDS011;1458;49.728;9.228;2023-09-19T03:45:12;0.10;;;0.10;;
2896;SDS011;1458;49.728;9.228;2023-09-19T03:47:48;0.10;;;0.10;;
2896;SDS011;1458;49.728;9.228;2023-09-19T03:50:17;0.10;;;0.10;;
2896;SDS011;1458;49.728;9.228;2023-09-19T03:52:45;0.20;;;0.20;;
2896;SDS011;1458;49.728;9.228;2023-09-19T03:55:12;0.10;;;0.10;;
2896;SDS011;1458;49.728;9.228;2023-09-19T03:57:40;0.10;;;0.10;;
2896;SDS011;1458;49.728;9.228;2023-09-19T04:00:10;0.10;;;0.10;;
2896;SDS011;1458;49.728;9.228;2023-09-19T04:02:40;0.10;;;0.10;;
2896;SDS011;1458;49.728;9.228;2023-09-19T04:05:08;0.10;;;0.10;;
2896;SDS011;1458;49.728;9.228;2023-09-19T04:07:36;0.20;;;0.20;;
2896;SDS011;1458;49.728;9.228;2023-09-19T04:10:03;0.10;;;0.10;;
2896;SDS011;1458;49.728;9.228;2023-09-19T04:12:34;0.10;;;0.10;;
2896;SDS011;1458;49.728;9.228;2023-09-19T04:15:01;0.13;;;0.13;;
2896;SDS011;1458;49.728;9.228;2023-09-19T04:17:31;0.10;;;0.10;;
2896;SDS011;1458;49.728;9.228;2023-09-19T04:19:59;0.10;;;0.10;;
2896;SDS011;1458;49.728;9.228;2023-09-19T04:22:26;0.20;;;0.20;;
2896;SDS011;1458;49.728;9.228;2023-09-19T04:24:54;0.10;;;0.10;;
2896;SDS011;1458;49.728;9.228;2023-09-19T04:27:22;0.20;;;0.20;;
2896;SDS011;1458;49.728;9.228;2023-09-19T04:29:49;0.10;;;0.10;;
2896;SDS011;1458;49.728;9.228;2023-09-19T04:32:18;0.10;;;0.10;;
2896;SDS011;1458;49.728;9.228;2023-09-19T04:34:47;0.20;;;0.20;;
2896;SDS011;1458;49.728;9.228;2023-09-19T04:37:15;0.10;;;0.10;;
2896;SDS011;1458;49.728;9.228;2023-09-19T04:39:43;0.10;;;0.10;;
2896;SDS011;1458;49.728;9.228;2023-09-19T04:42:12;0.20;;;0.20;;
2896;SDS011;1458;49.728;9.228;2023-09-19T04:44:40;0.20;;;0.20;;
2896;SDS011;1458;49.728;9.228;2023-09-19T04:47:08;0.20;;;0.20;;
2896;SDS011;1458;49.728;9.228;2023-09-19T04:49:37;0.20;;;0.20;;
2896;SDS011;1458;49.728;9.228;2023-09-19T04:52:06;0.10;;;0.10;;
2896;SDS011;1458;49.728;9.228;2023-09-19T04:54:34;0.10;;;0.10;;
2896;SDS011;1458;49.728;9.228;2023-09-19T04:57:01;0.13;;;0.13;;
2896;SDS011;1458;49.728;9.228;2023-09-19T04:59:31;0.20;;;0.20;;
2896;SDS011;1458;49.728;9.228;2023-09-19T05:01:58;0.10;;;0.10;;
2896;SDS011;1458;49.728;9.228;2023-09-19T05:04:26;0.10;;;0.10;;
2896;SDS011;1458;49.728;9.228;2023-09-19T05:06:53;0.10;;;0.10;;
2896;SDS011;1458;49.728;9.228;2023-09-19T05:09:22;0.10;;;0.10;;
2896;SDS011;1458;49.728;9.228;2023-09-19T05:11:50;0.10;;;0.10;;
2896;SDS011;1458;49.728;9.228;2023-09-19T05:14:18;0.13;;;0.13;;
2896;SDS011;1458;49.728;9.228;2023-09-19T05:16:46;0.10;;;0.10;;
2896;SDS011;1458;49.728;9.228;2023-09-19T05:19:14;0.10;;;0.10;;
2896;SDS011;1458;49.728;9.228;2023-09-19T05:21:42;0.10;;;0.10;;
2896;SDS011;1458;49.728;9.228;2023-09-19T05:24:09;0.20;;;0.20;;
2896;SDS011;1458;49.728;9.228;2023-09-19T05:26:39;0.20;;;0.20;;
2896;SDS011;1458;49.728;9.228;2023-09-19T05:29:06;0.20;;;0.20;;
2896;SDS011;1458;49.728;9.228;2023-09-19T05:31:34;0.20;;;0.20;;
2896;SDS011;1458;49.728;9.228;2023-09-19T05:34:06;0.10;;;0.10;;
2896;SDS011;1458;49.728;9.228;2023-09-19T05:36:35;0.10;;;0.10;;
2896;SDS011;1458;49.728;9.228;2023-09-19T05:39:02;0.10;;;0.10;;
2896;SDS011;1458;49.728;9.228;2023-09-19T05:41:31;0.10;;;0.10;;
2896;SDS011;1458;49.728;9.228;2023-09-19T05:44:00;0.13;;;0.13;;
2896;SDS011;1458;49.728;9.228;2023-09-19T05:46:28;0.10;;;0.10;;
2896;SDS011;1458;49.728;9.228;2023-09-19T05:48:55;0.10;;;0.10;;
2896;SDS011;1458;49.728;9.228;2023-09-19T05:51:23;0.10;;;0.10;;
2896;SDS011;1458;49.728;9.228;2023-09-19T05:53:53;0.13;;;0.13;;
2896;SDS011;1458;49.728;9.228;2023-09-19T05:56:21;0.20;;;0.20;;
2896;SDS011;1458;49.728;9.228;2023-09-19T05:58:48;0.10;;;0.10;;
2896;SDS011;1458;49.728;9.228;2023-09-19T06:01:19;0.10;;;0.10;;
2896;SDS011;1458;49.728;9.228;2023-09-19T06:03:47;0.13;;;0.13;;
2896;SDS011;1458;49.728;9.228;2023-09-19T06:06:16;0.10;;;0.10;;
2896;SDS011;1458;49.728;9.228;2023-09-19T06:08:44;0.10;;;0.10;;
2896;SDS011;1458;49.728;9.228;2023-09-19T06:11:12;0.10;;;0.10;;
2896;SDS011;1458;49.728;9.228;2023-09-19T06:13:39;0.20;;;0.20;;
2896;SDS011;1458;49.728;9.228;2023-09-19T06:16:06;0.10;;;0.10;;
2896;SDS011;1458;49.728;9.228;2023-09-19T06:18:36;0.10;;;0.10;;
2896;SDS011;1458;49.728;9.228;2023-09-19T06:21:03;0.10;;;0.10;;
2896;SDS011;1458;49.728;9.228;2023-09-19T06:23:32;0.10;;;0.10;;
2896;SDS011;1458;49.728;9.228;2023-09-19T06:26:00;0.10;;;0.10;;
2896;SDS011;1458;49.728;9.228;2023-09-19T06:28:28;0.10;;;0.10;;
2896;SDS011;1458;49.728;9.228;2023-09-19T06:30:56;0.17;;;0.17;;
2896;SDS011;1458;49.728;9.228;2023-09-19T06:33:23;0.10;;;0.10;;
2896;SDS011;1458;49.728;9.228;2023-09-19T06:35:52;0.10;;;0.10;;
2896;SDS011;1458;49.728;9.228;2023-09-19T06:38:24;0.10;;;0.10;;
2896;SDS011;1458;49.728;9.228;2023-09-19T06:40:52;0.10;;;0.10;;
2896;SDS011;1458;49.728;9.228;2023-09-19T06:43:20;0.10;;;0.10;;
2896;SDS011;1458;49.728;9.228;2023-09-19T06:45:49;0.10;;;0.10;;
2896;SDS011;1458;49.728;9.228;2023-09-19T06:48:17;0.10;;;0.10;;
2896;SDS011;1458;49.728;9.228;2023-09-19T06:50:44;0.10;;;0.10;;
2896;SDS011;1458;49.728;9.228;2023-09-19T06:53:14;0.10;;;0.10;;
2896;SDS011;1458;49.728;9.228;2023-09-19T06:55:42;0.10;;;0.10;;
2896;SDS011;1458;49.728;9.228;2023-09-19T06:58:10;0.20;;;0.20;;
2896;SDS011;1458;49.728;9.228;2023-09-19T07:00:38;0.20;;;0.20;;
2896;SDS011;1458;49.728;9.228;2023-09-19T07:03:06;0.30;;;0.30;;
2896;SDS011;1458;49.728;9.228;2023-09-19T07:05:37;0.20;;;0.20;;
2896;SDS011;1458;49.728;9.228;2023-09-19T07:08:05;0.20;;;0.20;;
2896;SDS011;1458;49.728;9.228;2023-09-19T07:10:36;0.30;;;0.30;;
2896;SDS011;1458;49.728;9.228;2023-09-19T07:13:05;0.33;;;0.33;;
2896;SDS011;1458;49.728;9.228;2023-09-19T07:15:36;0.40;;;0.40;;
2896;SDS011;1458;49.728;9.228;2023-09-19T07:18:11;0.33;;;0.33;;
2896;SDS011;1458;49.728;9.228;2023-09-19T07:20:40;0.30;;;0.30;;
2896;SDS011;1458;49.728;9.228;2023-09-19T07:23:11;0.50;;;0.50;;
2896;SDS011;1458;49.728;9.228;2023-09-19T07:25:41;0.30;;;0.30;;
2896;SDS011;1458;49.728;9.228;2023-09-19T07:28:09;0.40;;;0.40;;
2896;SDS011;1458;49.728;9.228;2023-09-19T07:30:36;0.40;;;0.40;;
2896;SDS011;1458;49.728;9.228;2023-09-19T07:33:04;0.40;;;0.40;;
2896;SDS011;1458;49.728;9.228;2023-09-19T07:35:32;0.50;;;0.50;;
2896;SDS011;1458;49.728;9.228;2023-09-19T07:37:59;0.40;;;0.40;;
2896;SDS011;1458;49.728;9.228;2023-09-19T07:40:27;0.40;;;0.40;;
2896;SDS011;1458;49.728;9.228;2023-09-19T07:42:56;0.30;;;0.30;;
2896;SDS011;1458;49.728;9.228;2023-09-19T07:45:26;0.50;;;0.50;;
2896;SDS011;1458;49.728;9.228;2023-09-19T07:47:55;0.40;;;0.40;;
2896;SDS011;1458;49.728;9.228;2023-09-19T07:50:22;0.50;;;0.50;;
2896;SDS011;1458;49.728;9.228;2023-09-19T07:52:51;0.50;;;0.50;;
2896;SDS011;1458;49.728;9.228;2023-09-19T07:55:20;0.67;;;0.67;;
2896;SDS011;1458;49.728;9.228;2023-09-19T07:57:49;0.50;;;0.50;;
2896;SDS011;1458;49.728;9.228;2023-09-19T08:00:18;0.50;;;0.50;;
2896;SDS011;1458;49.728;9.228;2023-09-19T08:02:45;0.60;;;0.60;;
2896;SDS011;1458;49.728;9.228;2023-09-19T08:05:14;0.67;;;0.67;;
2896;SDS011;1458;49.728;9.228;2023-09-19T08:07:43;0.70;;;0.70;;
2896;SDS011;1458;49.728;9.228;2023-09-19T08:10:14;0.80;;;0.80;;
2896;SDS011;1458;49.728;9.228;2023-09-19T08:12:45;1.00;;;1.00;;
2896;SDS011;1458;49.728;9.228;2023-09-19T08:15:14;1.00;;;1.00;;
2896;SDS011;1458;49.728;9.228;2023-09-19T08:17:46;0.80;;;0.80;;
2896;SDS011;1458;49.728;9.228;2023-09-19T08:20:14;1.10;;;1.10;;
2896;SDS011;1458;49.728;9.228;2023-09-19T08:22:44;0.90;;;0.90;;
2896;SDS011;1458;49.728;9.228;2023-09-19T08:25:14;0.80;;;0.80;;
2896;SDS011;1458;49.728;9.228;2023-09-19T08:27:44;1.30;;;1.30;;
2896;SDS011;1458;49.728;9.228;2023-09-19T08:30:13;1.03;;;1.03;;
2896;SDS011;1458;49.728;9.228;2023-09-19T08:32:41;1.00;;;1.00;;
2896;SDS011;1458;49.728;9.228;2023-09-19T08:35:10;1.20;;;1.20;;
2896;SDS011;1458;49.728;9.228;2023-09-19T08:37:38;1.30;;;1.30;;
2896;SDS011;1458;49.728;9.228;2023-09-19T08:40:05;1.40;;;1.40;;
2896;SDS011;1458;49.728;9.228;2023-09-19T08:42:47;1.60;;;1.60;;
2896;SDS011;1458;49.728;9.228;2023-09-19T08:45:16;1.40;;;1.40;;
2896;SDS011;1458;49.728;9.228;2023-09-19T08:47:45;1.63;;;1.63;;
2896;SDS011;1458;49.728;9.228;2023-09-19T08:50:22;1.60;;;1.60;;
2896;SDS011;1458;49.728;9.228;2023-09-19T08:52:55;1.60;;;1.60;;
2896;SDS011;1458;49.728;9.228;2023-09-19T08:55:23;2.07;;;2.07;;
2896;SDS011;1458;49.728;9.228;2023-09-19T08:57:58;1.80;;;1.80;;
2896;SDS011;1458;49.728;9.228;2023-09-19T09:00:29;2.00;;;2.00;;
2896;SDS011;1458;49.728;9.228;2023-09-19T09:02:58;2.20;;;2.20;;
2896;SDS011;1458;49.728;9.228;2023-09-19T09:05:29;1.90;;;1.90;;
2896;SDS011;1458;49.728;9.228;2023-09-19T09:07:58;2.20;;;2.20;;
2896;SDS011;1458;49.728;9.228;2023-09-19T09:10:25;2.83;;;2.83;;
2896;SDS011;1458;49.728;9.228;2023-09-19T09:12:53;2.87;;;2.87;;
2896;SDS011;1458;49.728;9.228;2023-09-19T09:15:21;3.40;;;3.40;;
2896;SDS011;1458;49.728;9.228;2023-09-19T09:17:49;3.20;;;3.20;;
2896;SDS011;1458;49.728;9.228;2023-09-19T09:20:19;3.60;;;3.60;;
2896;SDS011;1458;49.728;9.228;2023-09-19T09:22:54;3.40;;;3.40;;
2896;SDS011;1458;49.728;9.228;2023-09-19T09:25:46;4.30;;;4.30;;
2896;SDS011;1458;49.728;9.228;2023-09-19T09:28:20;4.33;;;4.33;;
2896;SDS011;1458;49.728;9.228;2023-09-19T09:30:49;3.60;;;3.60;;
2896;SDS011;1458;49.728;9.228;2023-09-19T09:33:16;4.13;;;4.13;;
2896;SDS011;1458;49.728;9.228;2023-09-19T09:35:48;4.70;;;4.70;;
2896;SDS011;1458;49.728;9.228;2023-09-19T09:38:20;5.77;;;5.77;;
2896;SDS011;1458;49.728;9.228;2023-09-19T09:40:51;5.00;;;5.00;;
2896;SDS011;1458;49.728;9.228;2023-09-19T09:43:32;6.00;;;6.00;;
2896;SDS011;1458;49.728;9.228;2023-09-19T09:49:05;6.10;;;6.10;;
2896;SDS011;1458;49.728;9.228;2023-09-19T09:51:58;6.20;;;6.20;;
2896;SDS011;1458;49.728;9.228;2023-09-19T09:54:32;5.40;;;5.40;;
2896;SDS011;1458;49.728;9.228;2023-09-19T09:57:03;5.60;;;5.60;;
2896;SDS011;1458;49.728;9.228;2023-09-19T09:59:46;5.50;;;5.50;;
2896;SDS011;1458;49.728;9.228;2023-09-19T10:02:20;6.50;;;6.50;;
2896;SDS011;1458;49.728;9.228;2023-09-19T10:04:54;6.80;;;6.70;;
2896;SDS011;1458;49.728;9.228;2023-09-19T10:07:35;8.33;;;8.23;;
2896;SDS011;1458;49.728;9.228;2023-09-19T10:10:05;8.17;;;8.07;;
2896;SDS011;1458;49.728;9.228;2023-09-19T10:12:45;8.30;;;8.20;;
2896;SDS011;1458;49.728;9.228;2023-09-19T10:15:14;8.40;;;8.30;;
2896;SDS011;1458;49.728;9.228;2023-09-19T10:17:46;7.80;;;7.70;;
2896;SDS011;1458;49.728;9.228;2023-09-19T10:20:15;8.20;;;8.10;;
2896;SDS011;1458;49.728;9.228;2023-09-19T10:23:00;9.10;;;8.90;;
2896;SDS011;1458;49.728;9.228;2023-09-19T10:25:37;9.40;;;9.20;;
2896;SDS011;1458;49.728;9.228;2023-09-19T10:28:06;9.50;;;9.30;;
2896;SDS011;1458;49.728;9.228;2023-09-19T10:30:37;9.40;;;9.20;;
2896;SDS011;1458;49.728;9.228;2023-09-19T10:33:09;8.30;;;8.20;;
2896;SDS011;1458;49.728;9.228;2023-09-19T10:35:39;9.23;;;9.03;;
2896;SDS011;1458;49.728;9.228;2023-09-19T10:38:10;9.10;;;8.90;;
2896;SDS011;1458;49.728;9.228;2023-09-19T10:40:42;9.50;;;9.30;;
2896;SDS011;1458;49.728;9.228;2023-09-19T10:43:11;9.70;;;9.50;;
2896;SDS011;1458;49.728;9.228;2023-09-19T10:45:44;8.80;;;8.60;;
2896;SDS011;1458;49.728;9.228;2023-09-19T10:48:14;9.60;;;9.40;;
2896;SDS011;1458;49.728;9.228;2023-09-19T10:50:45;9.40;;;9.20;;
2896;SDS011;1458;49.728;9.228;2023-09-19T10:53:16;9.80;;;9.60;;
2896;SDS011;1458;49.728;9.228;2023-09-19T10:55:51;10.17;;;9.97;;
2896;SDS011;1458;49.728;9.228;2023-09-19T10:58:25;10.40;;;10.20;;
2896;SDS011;1458;49.728;9.228;2023-09-19T11:00:55;9.80;;;9.60;;
2896;SDS011;1458;49.728;9.228;2023-09-19T11:03:33;9.60;;;9.40;;
2896;SDS011;1458;49.728;9.228;2023-09-19T11:06:03;10.23;;;10.03;;
2896;SDS011;1458;49.728;9.228;2023-09-19T11:11:49;9.20;;;9.00;;
2896;SDS011;1458;49.728;9.228;2023-09-19T11:14:40;8.90;;;8.70;;
2896;SDS011;1458;49.728;9.228;2023-09-19T11:20:18;9.50;;;9.30;;
2896;SDS011;1458;49.728;9.228;2023-09-19T11:23:17;8.90;;;8.70;;
2896;SDS011;1458;49.728;9.228;2023-09-19T11:25:52;9.60;;;9.40;;
2896;SDS011;1458;49.728;9.228;2023-09-19T11:28:34;9.50;;;9.30;;
2896;SDS011;1458;49.728;9.228;2023-09-19T11:40:44;9.50;;;9.30;;
2896;SDS011;1458;49.728;9.228;2023-09-19T11:43:29;10.57;;;10.27;;
2896;SDS011;1458;49.728;9.228;2023-09-19T11:46:03;10.70;;;10.40;;
2896;SDS011;1458;49.728;9.228;2023-09-19T11:48:34;10.90;;;10.60;;
2896;SDS011;1458;49.728;9.228;2023-09-19T11:51:10;10.90;;;10.60;;
2896;SDS011;1458;49.728;9.228;2023-09-19T11:53:47;10.30;;;10.10;;
2896;SDS011;1458;49.728;9.228;2023-09-19T11:56:17;10.20;;;10.00;;
2896;SDS011;1458;49.728;9.228;2023-09-19T11:58:48;11.23;;;10.93;;
2896;SDS011;1458;49.728;9.228;2023-09-19T12:01:22;11.30;;;11.00;;
2896;SDS011;1458;49.728;9.228;2023-09-19T12:03:54;10.27;;;10.07;;
2896;SDS011;1458;49.728;9.228;2023-09-19T12:06:24;10.80;;;10.50;;
2896;SDS011;1458;49.728;9.228;2023-09-19T12:08:54;10.40;;;10.20;;
2896;SDS011;1458;49.728;9.228;2023-09-19T12:11:27;10.70;;;10.40;;
2896;SDS011;1458;49.728;9.228;2023-09-19T12:13:58;10.70;;;10.40;;
2896;SDS011;1458;49.728;9.228;2023-09-19T12:16:28;11.03;;;10.73;;
2896;SDS011;1458;49.728;9.228;2023-09-19T12:18:56;10.63;;;10.33;;
2896;SDS011;1458;49.728;9.228;2023-09-19T12:21:25;11.00;;;10.70;;
2896;SDS011;1458;49.728;9.228;2023-09-19T12:23:59;11.20;;;10.90;;
2896;SDS011;1458;49.728;9.228;2023-09-19T12:26:37;11.00;;;10.70;;
2896;SDS011;1458;49.728;9.228;2023-09-19T12:29:11;11.00;;;10.70;;
2896;SDS011;1458;49.728;9.228;2023-09-19T12:31:49;10.80;;;10.50;;
2896;SDS011;1458;49.728;9.228;2023-09-19T12:34:23;10.60;;;10.30;;
2896;SDS011;1458;49.728;9.228;2023-09-19T12:37:09;11.00;;;10.70;;
2896;SDS011;1458;49.728;9.228;2023-09-19T12:39:42;11.50;;;11.20;;
2896;SDS011;1458;49.728;9.228;2023-09-19T12:42:14;11.30;;;11.00;;
2896;SDS011;1458;49.728;9.228;2023-09-19T12:44:43;11.50;;;11.20;;
2896;SDS011;1458;49.728;9.228;2023-09-19T12:47:18;11.43;;;11.13;;
2896;SDS011;1458;49.728;9.228;2023-09-19T12:50:07;11.00;;;10.70;;
2896;SDS011;1458;49.728;9.228;2023-09-19T12:52:50;11.60;;;11.30;;
2896;SDS011;1458;49.728;9.228;2023-09-19T12:55:24;11.20;;;10.90;;
2896;SDS011;1458;49.728;9.228;2023-09-19T12:57:55;11.40;;;11.10;;
2896;SDS011;1458;49.728;9.228;2023-09-19T13:00:40;11.30;;;11.00;;
2896;SDS011;1458;49.728;9.228;2023-09-19T13:03:25;11.90;;;11.60;;
2896;SDS011;1458;49.728;9.228;2023-09-19T13:05:57;11.60;;;11.30;;
2896;SDS011;1458;49.728;9.228;2023-09-19T13:08:26;11.57;;;11.27;;
2896;SDS011;1458;49.728;9.228;2023-09-19T13:11:01;11.40;;;11.10;;
2896;SDS011;1458;49.728;9.228;2023-09-19T13:13:38;11.13;;;10.83;;
2896;SDS011;1458;49.728;9.228;2023-09-19T13:16:09;10.90;;;10.60;;
2896;SDS011;1458;49.728;9.228;2023-09-19T13:18:45;11.50;;;11.20;;
2896;SDS011;1458;49.728;9.228;2023-09-19T13:21:16;11.50;;;11.20;;
2896;SDS011;1458;49.728;9.228;2023-09-19T13:23:54;11.77;;;11.47;;
2896;SDS011;1458;49.728;9.228;2023-09-19T13:26:24;11.90;;;11.60;;
2896;SDS011;1458;49.728;9.228;2023-09-19T13:28:53;11.83;;;11.53;;
2896;SDS011;1458;49.728;9.228;2023-09-19T13:31:20;11.70;;;11.40;;
2896;SDS011;1458;49.728;9.228;2023-09-19T13:33:50;11.80;;;11.50;;
2896;SDS011;1458;49.728;9.228;2023-09-19T13:36:17;11.90;;;11.60;;
2896;SDS011;1458;49.728;9.228;2023-09-19T13:38:45;11.83;;;11.53;;
2896;SDS011;1458;49.728;9.228;2023-09-19T13:41:14;11.90;;;11.60;;
2896;SDS011;1458;49.728;9.228;2023-09-19T13:43:42;12.30;;;11.90;;
2896;SDS011;1458;49.728;9.228;2023-09-19T13:46:13;12.27;;;11.87;;
2896;SDS011;1458;49.728;9.228;2023-09-19T13:48:41;11.70;;;11.40;;
2896;SDS011;1458;49.728;9.228;2023-09-19T13:51:10;12.03;;;11.67;;
2896;SDS011;1458;49.728;9.228;2023-09-19T13:53:38;12.00;;;11.70;;
2896;SDS011;1458;49.728;9.228;2023-09-19T13:56:05;12.30;;;11.90;;
2896;SDS011;1458;49.728;9.228;2023-09-19T13:58:33;12.30;;;11.90;;
2896;SDS011;1458;49.728;9.228;2023-09-19T14:01:00;12.30;;;11.90;;
2896;SDS011;1458;49.728;9.228;2023-09-19T14:03:28;12.33;;;11.93;;
2896;SDS011;1458;49.728;9.228;2023-09-19T14:05:56;12.07;;;11.70;;
2896;SDS011;1458;49.728;9.228;2023-09-19T14:08:25;12.73;;;12.33;;
2896;SDS011;1458;49.728;9.228;2023-09-19T14:10:53;11.90;;;11.60;;
2896;SDS011;1458;49.728;9.228;2023-09-19T14:13:20;11.90;;;11.60;;
2896;SDS011;1458;49.728;9.228;2023-09-19T14:15:47;12.40;;;12.00;;
2896;SDS011;1458;49.728;9.228;2023-09-19T14:18:15;12.30;;;11.90;;
2896;SDS011;1458;49.728;9.228;2023-09-19T14:20:43;11.80;;;11.50;;
2896;SDS011;1458;49.728;9.228;2023-09-19T14:23:11;11.97;;;11.67;;
2896;SDS011;1458;49.728;9.228;2023-09-19T14:25:39;11.70;;;11.40;;
2896;SDS011;1458;49.728;9.228;2023-09-19T14:28:07;11.83;;;11.53;;
2896;SDS011;1458;49.728;9.228;2023-09-19T14:30:35;11.80;;;11.50;;
2896;SDS011;1458;49.728;9.228;2023-09-19T14:33:03;11.60;;;11.30;;
2896;SDS011;1458;49.728;9.228;2023-09-19T14:35:31;11.80;;;11.50;;
2896;SDS011;1458;49.728;9.228;2023-09-19T14:37:58;11.60;;;11.30;;
2896;SDS011;1458;49.728;9.228;2023-09-19T14:40:26;11.63;;;11.33;;
2896;SDS011;1458;49.728;9.228;2023-09-19T14:42:55;11.60;;;11.30;;
2896;SDS011;1458;49.728;9.228;2023-09-19T14:45:22;11.77;;;11.47;;
2896;SDS011;1458;49.728;9.228;2023-09-19T14:47:50;11.87;;;11.57;;
2896;SDS011;1458;49.728;9.228;2023-09-19T14:50:20;11.70;;;11.40;;
2896;SDS011;1458;49.728;9.228;2023-09-19T14:52:47;11.50;;;11.20;;
2896;SDS011;1458;49.728;9.228;2023-09-19T14:55:16;11.60;;;11.30;;
2896;SDS011;1458;49.728;9.228;2023-09-19T14:57:48;11.70;;;11.40;;
2896;SDS011;1458;49.728;9.228;2023-09-19T15:00:17;11.60;;;11.30;;
2896;SDS011;1458;49.728;9.228;2023-09-19T15:02:46;11.27;;;10.97;;
2896;SDS011;1458;49.728;9.228;2023-09-19T15:05:15;11.50;;;11.20;;
2896;SDS011;1458;49.728;9.228;2023-09-19T15:07:42;11.43;;;11.13;;
2896;SDS011;1458;49.728;9.228;2023-09-19T15:10:10;11.33;;;11.03;;
2896;SDS011;1458;49.728;9.228;2023-09-19T15:12:38;10.60;;;10.30;;
2896;SDS011;1458;49.728;9.228;2023-09-19T15:15:06;10.83;;;10.53;;
2896;SDS011;1458;49.728;9.228;2023-09-19T15:17:36;11.03;;;10.73;;
2896;SDS011;1458;49.728;9.228;2023-09-19T15:20:04;10.60;;;10.30;;
2896;SDS011;1458;49.728;9.228;2023-09-19T15:22:33;10.73;;;10.43;;
2896;SDS011;1458;49.728;9.228;2023-09-19T15:25:01;10.63;;;10.33;;
2896;SDS011;1458;49.728;9.228;2023-09-19T15:27:29;10.80;;;10.50;;
2896;SDS011;1458;49.728;9.228;2023-09-19T15:29:58;10.67;;;10.37;;
2896;SDS011;1458;49.728;9.228;2023-09-19T15:32:28;10.30;;;10.10;;
2896;SDS011;1458;49.728;9.228;2023-09-19T15:34:57;10.20;;;10.00;;
2896;SDS011;1458;49.728;9.228;2023-09-19T15:37:24;10.70;;;10.40;;
2896;SDS011;1458;49.728;9.228;2023-09-19T15:39:53;10.93;;;10.63;;
2896;SDS011;1458;49.728;9.228;2023-09-19T15:42:20;10.60;;;10.30;;
2896;SDS011;1458;49.728;9.228;2023-09-19T15:44:47;9.83;;;9.63;;
2896;SDS011;1458;49.728;9.228;2023-09-19T15:47:16;10.40;;;10.20;;
2896;SDS011;1458;49.728;9.228;2023-09-19T15:49:44;10.30;;;10.10;;